Decoded Metar for LFOB (BEAUVAIS in FRANCE) (IATA:BVA) | Meteo·Mobile Aviation Weather
aviador You're here:

LFOB Decoded Metar

BEAUVAIS in FRANCE
Report Time2019-02-22 00:00:00
UTC Time2019-02-22 00:13:40
Flight Rules ifr IFR
WindVRB at 02 kt
Visibility3700 m
Phenomena:Mist
Fog
Clouds:N/A
Expected CloudBase > 400 ft AGL from Temp-Dew spread
CeilingNone
Temp02°C (ISA -12)
Dew Point01°C (93% RH)
AAT-0.6°C
QNH1032 hPa
Density Alt-1,683 ft
Elevation364 ft
Report Wrong Elevation
Raw Report
LFOB 220000Z AUTO VRB02KT 3700 BR NSC 02/01 Q1032 BECMG 0700 FG
VV///=

Extra information for LFOB:More info

Metar Taf Metar & Taf Last 4 Metars F.Rules Stats Wind Profile Meteogram Temp Stats Airport Information Weather charts Add Link Nearby VenuesMetar ALERT Operation Metar Decoded Social comments